sensor_id;sensor_type;location;lat;lon;timestamp;pressure;altitude;pressure_sealevel;temperature;humidity
58757;BME280;44527;47.460;19.016;2023-09-19T00:01:14;99770.00;;;22.00;74.08
58757;BME280;44527;47.460;19.016;2023-09-19T00:04:17;99773.19;;;21.89;74.85
58757;BME280;44527;47.460;19.016;2023-09-19T00:07:21;99776.41;;;21.85;75.34
58757;BME280;44527;47.460;19.016;2023-09-19T00:10:26;99777.50;;;21.90;75.05
58757;BME280;44527;47.460;19.016;2023-09-19T00:13:29;99776.62;;;21.83;75.41
58757;BME280;44527;47.460;19.016;2023-09-19T00:16:33;99773.94;;;21.83;75.58
58757;BME280;44527;47.460;19.016;2023-09-19T00:19:35;99769.16;;;21.78;75.72
58757;BME280;44527;47.460;19.016;2023-09-19T00:22:42;99772.34;;;21.67;76.35
58757;BME280;44527;47.460;19.016;2023-09-19T00:25:44;99772.69;;;21.64;76.74
58757;BME280;44527;47.460;19.016;2023-09-19T00:28:47;99769.00;;;21.65;76.72
58757;BME280;44527;47.460;19.016;2023-09-19T00:31:50;99769.66;;;21.67;76.93
58757;BME280;44527;47.460;19.016;2023-09-19T00:34:53;99767.16;;;21.66;76.96
58757;BME280;44527;47.460;19.016;2023-09-19T00:37:55;99772.06;;;21.62;77.43
58757;BME280;44527;47.460;19.016;2023-09-19T00:40:58;99764.50;;;21.66;77.46
58757;BME280;44527;47.460;19.016;2023-09-19T00:44:04;99763.84;;;21.64;77.76
58757;BME280;44527;47.460;19.016;2023-09-19T00:47:07;99769.09;;;21.57;78.37
58757;BME280;44527;47.460;19.016;2023-09-19T00:50:12;99774.44;;;21.57;78.61
58757;BME280;44527;47.460;19.016;2023-09-19T00:53:22;99770.66;;;21.51;79.29
58757;BME280;44527;47.460;19.016;2023-09-19T00:56:25;99776.38;;;21.48;79.68
58757;BME280;44527;47.460;19.016;2023-09-19T00:59:29;99768.56;;;21.47;79.78
58757;BME280;44527;47.460;19.016;2023-09-19T01:02:32;99774.66;;;21.41;80.31
58757;BME280;44527;47.460;19.016;2023-09-19T01:05:35;99777.03;;;21.36;80.77
58757;BME280;44527;47.460;19.016;2023-09-19T01:08:38;99780.87;;;21.33;81.25
58757;BME280;44527;47.460;19.016;2023-09-19T01:11:43;99773.44;;;21.28;82.18
58757;BME280;44527;47.460;19.016;2023-09-19T01:14:59;99776.66;;;21.24;82.46
58757;BME280;44527;47.460;19.016;2023-09-19T01:28:28;99766.16;;;21.07;84.96
58757;BME280;44527;47.460;19.016;2023-09-19T01:31:33;99767.09;;;21.00;85.20
58757;BME280;44527;47.460;19.016;2023-09-19T01:37:52;99759.25;;;20.98;86.23
58757;BME280;44527;47.460;19.016;2023-09-19T01:41:12;99763.19;;;21.02;85.96
58757;BME280;44527;47.460;19.016;2023-09-19T01:48:35;99757.22;;;20.85;87.41
58757;BME280;44527;47.460;19.016;2023-09-19T01:52:05;99754.34;;;20.87;87.45
58757;BME280;44527;47.460;19.016;2023-09-19T01:55:10;99750.94;;;20.78;88.28
58757;BME280;44527;47.460;19.016;2023-09-19T01:58:31;99765.28;;;20.77;88.37
58757;BME280;44527;47.460;19.016;2023-09-19T02:01:36;99753.03;;;20.68;88.88
58757;BME280;44527;47.460;19.016;2023-09-19T02:04:40;99750.19;;;20.55;89.67
58757;BME280;44527;47.460;19.016;2023-09-19T02:07:42;99762.31;;;20.57;90.15
58757;BME280;44527;47.460;19.016;2023-09-19T02:10:45;99752.72;;;20.48;90.81
58757;BME280;44527;47.460;19.016;2023-09-19T02:13:51;99752.41;;;20.43;91.57
58757;BME280;44527;47.460;19.016;2023-09-19T02:16:57;99757.28;;;20.39;91.76
58757;BME280;44527;47.460;19.016;2023-09-19T02:20:00;99757.75;;;20.43;92.25
58757;BME280;44527;47.460;19.016;2023-09-19T02:23:03;99756.56;;;20.46;92.26
58757;BME280;44527;47.460;19.016;2023-09-19T02:26:05;99754.59;;;20.39;92.57
58757;BME280;44527;47.460;19.016;2023-09-19T02:29:08;99758.47;;;20.37;92.88
58757;BME280;44527;47.460;19.016;2023-09-19T02:32:14;99750.41;;;20.45;92.43
58757;BME280;44527;47.460;19.016;2023-09-19T02:35:17;99753.84;;;20.31;93.37
58757;BME280;44527;47.460;19.016;2023-09-19T02:38:23;99754.00;;;20.29;93.93
58757;BME280;44527;47.460;19.016;2023-09-19T02:41:27;99757.69;;;20.28;94.28
58757;BME280;44527;47.460;19.016;2023-09-19T02:44:31;99761.06;;;20.22;94.77
58757;BME280;44527;47.460;19.016;2023-09-19T02:47:35;99763.97;;;20.12;95.82
58757;BME280;44527;47.460;19.016;2023-09-19T02:50:38;99765.34;;;20.08;96.20
58757;BME280;44527;47.460;19.016;2023-09-19T02:53:42;99764.00;;;20.04;96.90
58757;BME280;44527;47.460;19.016;2023-09-19T02:56:44;99750.22;;;20.01;97.24
58757;BME280;44527;47.460;19.016;2023-09-19T02:59:47;99751.88;;;20.02;97.12
58757;BME280;44527;47.460;19.016;2023-09-19T03:02:53;99755.19;;;20.04;97.20
58757;BME280;44527;47.460;19.016;2023-09-19T03:05:56;99746.84;;;20.07;96.72
58757;BME280;44527;47.460;19.016;2023-09-19T03:09:00;99748.84;;;20.05;96.78
58757;BME280;44527;47.460;19.016;2023-09-19T03:12:03;99750.34;;;20.07;96.46
58757;BME280;44527;47.460;19.016;2023-09-19T03:15:08;99761.88;;;20.23;95.05
58757;BME280;44527;47.460;19.016;2023-09-19T03:18:13;99763.38;;;20.25;94.89
58757;BME280;44527;47.460;19.016;2023-09-19T03:21:16;99765.44;;;20.38;93.95
58757;BME280;44527;47.460;19.016;2023-09-19T03:24:23;99758.56;;;20.43;93.74
58757;BME280;44527;47.460;19.016;2023-09-19T03:27:28;99747.91;;;20.43;93.75
58757;BME280;44527;47.460;19.016;2023-09-19T03:30:31;99750.56;;;20.43;93.78
58757;BME280;44527;47.460;19.016;2023-09-19T03:33:37;99759.94;;;20.39;94.17
58757;BME280;44527;47.460;19.016;2023-09-19T03:36:41;99759.75;;;20.41;93.67
58757;BME280;44527;47.460;19.016;2023-09-19T03:39:43;99754.78;;;20.38;93.91
58757;BME280;44527;47.460;19.016;2023-09-19T03:42:47;99760.47;;;20.35;94.16
58757;BME280;44527;47.460;19.016;2023-09-19T03:45:50;99756.31;;;20.32;94.39
58757;BME280;44527;47.460;19.016;2023-09-19T03:48:53;99756.66;;;20.29;94.61
58757;BME280;44527;47.460;19.016;2023-09-19T03:51:58;99758.50;;;20.29;94.19
58757;BME280;44527;47.460;19.016;2023-09-19T03:55:02;99754.00;;;20.29;94.09
58757;BME280;44527;47.460;19.016;2023-09-19T03:58:08;99763.56;;;20.24;94.47
58757;BME280;44527;47.460;19.016;2023-09-19T04:01:11;99762.72;;;20.23;94.78
58757;BME280;44527;47.460;19.016;2023-09-19T04:04:15;99762.19;;;20.28;94.31
58757;BME280;44527;47.460;19.016;2023-09-19T04:07:21;99767.75;;;20.41;94.69
58757;BME280;44527;47.460;19.016;2023-09-19T04:10:26;99769.88;;;20.46;94.25
58757;BME280;44527;47.460;19.016;2023-09-19T04:13:29;99762.84;;;20.53;93.37
58757;BME280;44527;47.460;19.016;2023-09-19T04:16:32;99768.12;;;20.61;92.74
58757;BME280;44527;47.460;19.016;2023-09-19T04:19:35;99771.41;;;20.63;92.22
58757;BME280;44527;47.460;19.016;2023-09-19T04:22:40;99775.09;;;20.62;92.36
58757;BME280;44527;47.460;19.016;2023-09-19T04:25:45;99773.00;;;20.57;92.68
58757;BME280;44527;47.460;19.016;2023-09-19T04:28:50;99780.69;;;20.52;93.51
58757;BME280;44527;47.460;19.016;2023-09-19T04:31:54;99783.03;;;20.47;93.84
